Terminal Aerodrome Forecast
Issued by NWS

Home | Current Version | Previous Version | Text Only | Print | Product List | Glossary On
Versions: 1 2 3 4 5 6 7 8 9 10 11 12 13 14 15 16 17 18 19 20 21 22
322
FTUS44 KLIX 231416 AAA
TAFMSY
TAF AMD
KMSY 231416Z 2314/2412 31015KT P6SM SCT030
     FM232200 31010KT P6SM SKC
     FM240100 32008KT P6SM SKC=

USA.gov is the U.S. government's official web portal to all federal, state and local government web resources and services.